Ust' Kalmanka, Russia
Current Conditions -  °F | °C
As of 3:30 AM on Thursday 27 Nov 2014 (Local Time) from UNBB Reporting Station
Heavy Snow Heavy Snow  
Wind Chill: -2°   Ceiling: 300
Heat Index: 16°   Visibility: 0.5mi
Dew Point: 10°   Wind: 22mph
Humidity: 79%   Direction: 210°SSW
Pressure: 29.62"   Gusts: 34mph
Location:  52.12°N, 83.32°E
Report Text: UNBB 262030Z 21010G15MPS 0800 R24/P1500D +SN BLSN OVC003M09/M12 Q1003 NOSIG RMK QBB100 QFE730/0973 24455038
Loading
Personal Weather Stations






























Interactive Weather Map New forecast layout! Learn more

10-Day Weather Forecast

Advertisements
Track Severe Weather on mobile